Time;durP1;ratioP1;P1;durP2;ratioP2;P2;SDS_P1;SDS_P2;PMS_P1;PMS_P2;Temp;Humidity;BMP_temperature;BMP_pressure;BME280_temperature;BME280_humidity;BME280_pressure;Samples;Min_cycle;Max_cycle;Signal;HPM_P1;HPM_P2
2023/01/03 00:04:27;;;;;;;1.27;0.52;;;;;;;9.32;100.00;102526.06;10332780;28;20121;-79
2023/01/03 00:09:29;;;;;;;2.70;1.75;;;;;;;9.08;100.00;102534.13;10332834;28;20042;-79
2023/01/03 00:14:34;;;;;;;1.08;0.85;;;;;;;9.14;100.00;102525.91;10333299;28;20558;-79
2023/01/03 00:19:41;;;;;;;0.70;0.55;;;;;;;9.13;100.00;102530.13;10333349;28;20049;-79
2023/01/03 00:24:47;;;;;;;1.02;0.80;;;;;;;9.24;100.00;102538.47;10330983;28;20388;-80
2023/01/03 00:29:48;;;;;;;2.00;1.35;;;;;;;9.43;100.00;102540.41;10332325;28;20039;-79
2023/01/03 00:34:50;;;;;;;1.60;0.80;;;;;;;9.38;100.00;102536.69;10332067;28;20039;-79
2023/01/03 00:39:51;;;;;;;2.38;1.33;;;;;;;9.48;100.00;102541.59;10333280;28;20482;-80
2023/01/03 00:44:53;;;;;;;2.00;1.15;;;;;;;9.30;100.00;102549.13;10333048;28;20044;-79
2023/01/03 00:49:54;;;;;;;2.42;1.42;;;;;;;9.41;100.00;102552.31;10331065;28;20048;-79
2023/01/03 00:54:56;;;;;;;2.47;1.23;;;;;;;9.24;100.00;102553.03;10331504;28;20114;-79
2023/01/03 00:59:57;;;;;;;1.75;1.42;;;;;;;9.57;100.00;102560.91;10330938;28;20145;-79
2023/01/03 01:04:59;;;;;;;0.73;0.57;;;;;;;9.58;100.00;102555.84;10330916;28;20065;-79
2023/01/03 01:10:00;;;;;;;0.88;0.77;;;;;;;9.25;100.00;102552.22;10347164;28;20507;-79
2023/01/03 01:15:02;;;;;;;0.43;0.43;;;;;;;8.93;100.00;102556.38;10331665;28;20130;-79
2023/01/03 01:20:04;;;;;;;1.30;1.13;;;;;;;8.86;100.00;102561.16;10346405;28;20137;-80
2023/01/03 01:25:06;;;;;;;1.98;1.33;;;;;;;8.83;100.00;102563.53;10330259;28;20432;-79
2023/01/03 01:30:08;;;;;;;1.63;0.77;;;;;;;8.56;100.00;102576.50;10320666;28;20463;-79
2023/01/03 01:35:09;;;;;;;2.08;1.25;;;;;;;8.71;100.00;102580.78;10333346;28;20117;-79
2023/01/03 01:40:11;;;;;;;2.75;1.65;;;;;;;8.24;100.00;102580.50;10338723;28;20134;-79
2023/01/03 01:45:14;;;;;;;0.73;0.47;;;;;;;8.20;100.00;102596.50;10338803;28;20122;-79
2023/01/03 01:50:18;;;;;;;0.77;0.60;;;;;;;7.87;100.00;102598.69;10339553;28;20046;-79
2023/01/03 01:55:25;;;;;;;1.50;0.93;;;;;;;7.74;100.00;102614.09;10342112;28;20153;-80
2023/01/03 02:00:28;;;;;;;5.68;1.40;;;;;;;8.25;100.00;102615.66;10338871;28;20506;-80
2023/01/03 02:05:31;;;;;;;0.77;0.55;;;;;;;7.99;100.00;102610.56;10354939;28;20107;-79
2023/01/03 02:10:51;;;;;;;0.30;0.30;;;;;;;7.33;100.00;102619.97;10326708;28;20133;-80
2023/01/03 02:16:02;;;;;;;13.75;1.35;;;;;;;7.06;100.00;102630.13;10339043;28;20038;-79
2023/01/03 02:21:06;;;;;;;;;;;;;;;6.71;100.00;102641.41;10337076;28;20084;-79
2023/01/03 02:26:30;;;;;;;2.53;0.90;;;;;;;6.71;100.00;102637.16;10336277;28;19925;-79
2023/01/03 02:31:59;;;;;;;3.63;1.13;;;;;;;7.21;100.00;102626.03;10335849;28;20629;-79
2023/01/03 02:37:20;;;;;;;4.22;1.35;;;;;;;7.22;100.00;102627.81;10336351;28;20042;-79
2023/01/03 02:48:00;;;;;;;8.98;0.85;;;;;;;7.12;100.00;102625.41;10335370;28;19964;-79
2023/01/03 02:53:07;;;;;;;0.75;0.60;;;;;;;7.40;100.00;102622.16;10334584;28;20129;-79
2023/01/03 02:58:16;;;;;;;1.05;0.90;;;;;;;6.61;100.00;102630.50;10349865;28;20121;-79
2023/01/03 03:03:22;;;;;;;1.65;0.82;;;;;;;6.65;100.00;102627.38;10333201;28;20073;-79
2023/01/03 03:08:24;;;;;;;1.13;0.82;;;;;;;6.73;100.00;102630.47;10329073;28;20516;-79
2023/01/03 03:13:47;;;;;;;2.13;1.08;;;;;;;6.96;100.00;102626.91;10340955;28;20046;-79
2023/01/03 03:19:00;;;;;;;1.02;0.93;;;;;;;7.11;100.00;102628.78;10322758;28;20046;-79
2023/01/03 03:29:36;;;;;;;1.58;1.48;;;;;;;7.76;100.00;102674.09;10417735;28;20489;-93
2023/01/03 03:34:41;;;;;;;2.90;1.63;;;;;;;7.84;100.00;102656.63;10392220;28;20453;-94
2023/01/03 03:45:40;;;;;;;0.75;0.75;;;;;;;7.55;100.00;102664.22;10417164;28;20131;-94
2023/01/03 03:50:48;;;;;;;4.03;1.85;;;;;;;6.88;100.00;102687.03;10397020;28;20057;-94
2023/01/03 03:55:59;;;;;;;0.47;0.47;;;;;;;7.23;100.00;102696.25;10387636;28;20045;-94
2023/01/03 04:01:02;;;;;;;1.42;1.08;;;;;;;6.99;100.00;102700.59;10411126;28;20512;-93
2023/01/03 04:06:23;;;;;;;1.48;1.35;;;;;;;7.26;100.00;102687.88;10400049;28;20397;-93
2023/01/03 04:11:25;;;;;;;2.22;1.30;;;;;;;6.89;100.00;102693.03;10398041;28;20072;-93
2023/01/03 04:16:26;;;;;;;8.05;2.03;;;;;;;7.68;100.00;102693.22;10390501;28;20041;-94
2023/01/03 04:21:28;;;;;;;3.63;1.83;;;;;;;7.72;100.00;102687.50;10408726;28;20492;-93
2023/01/03 04:26:30;;;;;;;2.95;1.83;;;;;;;7.82;100.00;102691.59;10405998;28;20075;-94
2023/01/03 04:31:31;;;;;;;2.67;1.90;;;;;;;7.91;100.00;102693.06;10400141;28;20045;-93
2023/01/03 04:36:34;;;;;;;2.67;1.77;;;;;;;7.79;100.00;102697.38;10380669;28;20551;-93
2023/01/03 04:41:36;;;;;;;3.55;1.38;;;;;;;7.71;100.00;102706.25;10398730;28;20498;-93
2023/01/03 04:46:39;;;;;;;4.53;2.40;;;;;;;7.39;100.00;102715.25;10397485;28;20049;-94
2023/01/03 04:51:42;;;;;;;3.88;1.90;;;;;;;7.19;100.00;102727.56;10398320;28;20077;-94
2023/01/03 04:56:44;;;;;;;4.47;2.08;;;;;;;7.29;100.00;102731.69;10415734;28;20038;-93
2023/01/03 05:01:50;;;;;;;4.30;2.40;;;;;;;7.58;100.00;102736.22;10386311;28;20045;-94
2023/01/03 05:06:56;;;;;;;2.20;1.85;;;;;;;7.74;100.00;102721.84;10372171;28;20033;-94
2023/01/03 05:11:58;;;;;;;3.30;1.85;;;;;;;7.54;100.00;102723.97;10434890;28;20143;-93
2023/01/03 05:17:00;;;;;;;4.07;1.77;;;;;;;7.36;100.00;102722.72;10388657;28;20037;-94
2023/01/03 05:27:27;;;;;;;2.17;1.38;;;;;;;7.68;100.00;102721.44;10414094;28;20041;-93
2023/01/03 05:32:29;;;;;;;3.00;1.63;;;;;;;7.55;100.00;102719.72;10405485;28;20057;-93
2023/01/03 05:37:30;;;;;;;5.10;1.77;;;;;;;7.08;100.00;102710.56;10397280;28;20049;-94
2023/01/03 05:42:32;;;;;;;2.70;2.15;;;;;;;7.22;100.00;102714.09;10384319;28;20331;-93
2023/01/03 05:47:34;;;;;;;1.63;0.93;;;;;;;7.33;100.00;102708.00;10397604;28;20049;-94
2023/01/03 05:52:35;;;;;;;7.47;2.90;;;;;;;6.60;100.00;102710.66;10421731;28;20049;-92
2023/01/03 05:57:38;;;;;;;5.65;1.65;;;;;;;6.62;100.00;102714.25;10431543;28;20067;-92
2023/01/03 06:02:44;;;;;;;2.88;1.05;;;;;;;6.22;100.00;102721.59;10403979;28;20061;-93
2023/01/03 06:07:47;;;;;;;2.35;1.13;;;;;;;6.13;100.00;102720.94;10416006;28;20133;-94
2023/01/03 06:12:49;;;;;;;1.77;1.40;;;;;;;6.48;100.00;102714.94;10402804;28;20053;-93
2023/01/03 06:17:53;;;;;;;1.90;1.15;;;;;;;6.67;100.00;102677.03;10391585;28;20084;-93
2023/01/03 06:22:55;;;;;;;1.27;1.02;;;;;;;6.86;100.00;102664.63;10413627;28;20048;-93
2023/01/03 06:27:57;;;;;;;0.95;0.85;;;;;;;6.88;100.00;102670.75;10397785;28;20046;-93
2023/01/03 06:33:00;;;;;;;2.72;1.27;;;;;;;7.44;100.00;102655.78;10403200;28;20057;-93
2023/01/03 06:38:01;;;;;;;1.30;0.50;;;;;;;6.99;100.00;102663.03;10391060;28;20076;-93
2023/01/03 06:43:03;;;;;;;2.03;1.23;;;;;;;6.87;100.00;102669.88;10397845;28;20060;-94
2023/01/03 06:53:45;;;;;;;2.60;0.63;;;;;;;6.50;100.00;102672.41;10318416;28;20057;-94
2023/01/03 06:58:47;;;;;;;4.72;1.58;;;;;;;6.34;100.00;102666.19;10384800;28;20061;-93
2023/01/03 07:03:49;;;;;;;0.40;0.40;;;;;;;6.54;100.00;102669.28;10402434;28;20052;-93
2023/01/03 07:08:51;;;;;;;1.17;1.13;;;;;;;6.48;100.00;102668.84;10421125;28;20378;-93
2023/01/03 07:13:59;;;;;;;0.68;0.52;;;;;;;6.30;100.00;102669.28;10415952;28;20049;-92
2023/01/03 07:19:02;;;;;;;1.60;1.15;;;;;;;6.52;100.00;102660.56;10410158;28;20049;-93
2023/01/03 07:24:06;;;;;;;1.60;0.80;;;;;;;6.40;100.00;102664.84;10395393;28;20056;-93
2023/01/03 07:29:09;;;;;;;1.90;1.02;;;;;;;6.11;100.00;102650.84;10415484;28;20049;-93
2023/01/03 07:34:11;;;;;;;0.60;0.52;;;;;;;6.26;100.00;102657.06;10396547;28;20075;-93
2023/01/03 07:39:13;;;;;;;1.27;0.93;;;;;;;5.87;100.00;102667.06;10418197;28;20041;-93
2023/01/03 07:44:15;;;;;;;0.43;0.40;;;;;;;6.02;100.00;102662.19;10426673;28;20137;-94
2023/01/03 07:49:17;;;;;;;0.50;0.45;;;;;;;6.19;100.00;102660.84;10402393;28;20075;-93
2023/01/03 07:54:18;;;;;;;1.58;1.48;;;;;;;6.07;100.00;102657.41;10418186;28;20128;-92
2023/01/03 07:59:20;;;;;;;1.33;0.38;;;;;;;5.85;100.00;102654.91;10414178;28;20050;-93
2023/01/03 08:04:22;;;;;;;0.52;0.52;;;;;;;6.08;100.00;102668.53;10412459;28;20037;-92
2023/01/03 08:14:44;;;;;;;0.90;0.73;;;;;;;6.28;100.00;102673.44;10413936;28;20042;-93
2023/01/03 08:19:45;;;;;;;0.90;0.73;;;;;;;6.57;100.00;102674.63;10422554;28;20045;-93
2023/01/03 08:24:47;;;;;;;1.05;0.75;;;;;;;6.49;100.00;102683.44;10413125;28;20042;-93
2023/01/03 08:29:49;;;;;;;1.23;0.88;;;;;;;6.72;100.00;102676.47;10399069;28;20528;-92
2023/01/03 08:34:53;;;;;;;2.60;1.23;;;;;;;6.69;100.00;102676.25;10405436;28;20041;-92
2023/01/03 08:40:01;;;;;;;0.82;0.50;;;;;;;6.21;100.00;102688.22;10420176;28;20129;-93
2023/01/03 08:45:08;;;;;;;0.73;0.52;;;;;;;6.29;100.00;102688.00;10424766;28;20042;-93
2023/01/03 08:50:10;;;;;;;0.57;0.45;;;;;;;6.60;100.00;102687.63;10395008;28;20488;-93
2023/01/03 08:55:12;;;;;;;1.95;0.93;;;;;;;6.22;100.00;102726.72;10415366;28;20048;-93
2023/01/03 09:00:14;;;;;;;1.27;0.93;;;;;;;6.15;100.00;102734.72;10425765;28;20053;-92
2023/01/03 09:05:16;;;;;;;0.80;0.65;;;;;;;6.42;100.00;102745.22;10401620;28;20045;-93
2023/01/03 09:10:18;;;;;;;0.32;0.32;;;;;;;6.53;100.00;102749.44;10414659;28;20056;-92
2023/01/03 09:15:20;;;;;;;1.10;0.98;;;;;;;6.67;100.00;102753.88;10398589;28;20069;-92
2023/01/03 09:20:22;;;;;;;0.45;0.45;;;;;;;7.27;100.00;102746.94;10395891;28;20531;-93
2023/01/03 09:25:23;;;;;;;1.08;0.50;;;;;;;7.36;100.00;102763.75;10397469;28;20041;-92
2023/01/03 09:30:25;;;;;;;1.85;0.47;;;;;;;7.29;100.00;102767.56;10409526;28;20045;-93
2023/01/03 09:35:27;;;;;;;10.02;1.23;;;;;;;7.16;100.00;102768.38;10426890;28;20045;-93
2023/01/03 09:40:30;;;;;;;0.20;0.17;;;;;;;7.28;100.00;102771.78;10416697;28;20049;-93
2023/01/03 09:45:33;;;;;;;0.88;0.73;;;;;;;7.57;100.00;102770.34;10414138;28;20046;-94
2023/01/03 09:50:37;;;;;;;2.38;1.85;;;;;;;7.43;100.00;102763.38;10401289;28;20053;-93
2023/01/03 10:07:23;;;;;;;0.90;0.77;;;;;;;7.72;100.00;102769.59;10433823;28;20049;-93
2023/01/03 10:12:40;;;;;;;1.00;0.60;;;;;;;8.26;100.00;102760.34;10404084;28;20080;-93
2023/01/03 10:18:05;;;;;;;1.27;0.90;;;;;;;8.34;100.00;102759.16;10420866;28;20038;-92
2023/01/03 10:23:09;;;;;;;1.75;0.50;;;;;;;7.97;100.00;102753.28;10404731;28;20053;-93
2023/01/03 10:28:27;;;;;;;0.40;0.35;;;;;;;8.47;100.00;102750.59;10419925;28;20053;-92
2023/01/03 10:33:44;;;;;;;1.63;1.20;;;;;;;8.20;100.00;102745.44;10409471;28;20073;-93
2023/01/03 10:38:46;;;;;;;0.80;0.50;;;;;;;8.55;100.00;102736.56;10398955;28;20046;-92
2023/01/03 10:44:03;;;;;;;0.20;0.20;;;;;;;7.94;100.00;102729.19;10432285;28;20058;-93
2023/01/03 10:49:18;;;;;;;0.43;0.20;;;;;;;8.58;100.00;102738.44;10419189;28;20049;-93
2023/01/03 10:54:47;;;;;;;0.80;0.57;;;;;;;8.68;100.00;102745.03;10392622;28;20041;-94
2023/01/03 10:59:49;;;;;;;0.85;0.80;;;;;;;8.41;100.00;102748.47;10410909;28;20080;-91
2023/01/03 11:05:11;;;;;;;1.75;0.50;;;;;;;8.55;100.00;102746.84;10444441;28;20127;-93
2023/01/03 11:10:17;;;;;;;0.17;0.10;;;;;;;8.43;100.00;102743.47;10430257;28;20489;-92
2023/01/03 11:15:36;;;;;;;0.90;0.55;;;;;;;8.46;100.00;102741.06;10415681;28;20492;-91
2023/01/03 11:20:51;;;;;;;1.10;0.28;;;;;;;8.51;100.00;102731.13;10407064;28;20099;-92
2023/01/03 11:26:21;;;;;;;1.77;0.93;;;;;;;8.46;100.00;102723.09;10401272;28;20046;-93
2023/01/03 11:31:35;;;;;;;1.98;0.30;;;;;;;8.69;100.00;102726.25;10409469;28;20494;-92
2023/01/03 11:36:52;;;;;;;0.32;0.32;;;;;;;8.62;100.00;102724.09;10391454;28;20088;-92
2023/01/03 11:42:08;;;;;;;1.20;0.68;;;;;;;8.69;100.00;102710.84;10438709;28;20396;-92
2023/01/03 11:47:49;;;;;;;0.43;0.25;;;;;;;8.83;100.00;102709.16;10418027;28;20045;-92
2023/01/03 11:53:16;;;;;;;0.00;0.00;;;;;;;8.91;100.00;102701.91;10397314;28;20053;-92
2023/01/03 11:58:37;;;;;;;3.83;0.55;;;;;;;9.08;100.00;102690.09;10408513;28;20052;-92
2023/01/03 12:04:17;;;;;;;0.17;0.17;;;;;;;9.10;100.00;102678.19;10424249;28;20052;-93
2023/01/03 12:10:13;;;;;;;0.75;0.40;;;;;;;8.97;100.00;102671.44;10403015;28;20514;-92
2023/01/03 12:15:35;;;;;;;0.47;0.40;;;;;;;9.15;100.00;102662.25;10357688;28;20053;-93
2023/01/03 12:20:43;;;;;;;0.38;0.38;;;;;;;9.44;100.00;102654.50;10367481;28;20052;-92
2023/01/03 12:25:56;;;;;;;0.25;0.20;;;;;;;9.43;100.00;102647.59;10381645;28;20045;-92
2023/01/03 12:31:07;;;;;;;0.50;0.22;;;;;;;9.44;100.00;102649.38;10433737;28;20049;-94
2023/01/03 12:36:26;;;;;;;0.90;0.45;;;;;;;9.46;100.00;102651.22;10416291;28;20049;-93
2023/01/03 12:41:37;;;;;;;2.10;1.67;;;;;;;9.59;100.00;102649.34;10416357;28;20045;-92
2023/01/03 12:46:52;;;;;;;0.10;0.10;;;;;;;9.77;100.00;102642.72;10404869;28;20096;-92
2023/01/03 12:51:54;;;;;;;0.43;0.32;;;;;;;9.49;100.00;102638.53;10400843;28;20072;-93
2023/01/03 12:57:11;;;;;;;0.85;0.50;;;;;;;9.51;100.00;102629.22;10416177;28;20493;-93
2023/01/03 13:02:42;;;;;;;0.57;0.52;;;;;;;9.74;100.00;102632.22;10417201;28;20056;-93
2023/01/03 13:07:49;;;;;;;;;;;;;;;9.80;100.00;102616.25;10408202;28;20046;-94
2023/01/03 13:12:52;;;;;;;0.38;0.35;;;;;;;9.96;100.00;102602.53;10416286;28;20078;-93
2023/01/03 13:17:53;;;;;;;0.30;0.30;;;;;;;9.70;100.00;102596.84;10399805;28;20526;-93
2023/01/03 13:22:57;;;;;;;1.45;0.80;;;;;;;9.99;100.00;102602.72;10399511;28;20485;-94
2023/01/03 13:28:20;;;;;;;0.68;0.43;;;;;;;9.99;100.00;102589.84;10398416;28;20079;-92
2023/01/03 13:33:22;;;;;;;0.70;0.40;;;;;;;9.68;100.00;102586.44;10406843;28;20627;-93
2023/01/03 13:38:30;;;;;;;1.52;0.63;;;;;;;9.97;100.00;102587.19;10423328;28;20056;-92
2023/01/03 13:43:36;;;;;;;0.38;0.38;;;;;;;10.25;100.00;102590.38;10406913;28;20555;-93
2023/01/03 13:48:52;;;;;;;1.55;1.10;;;;;;;10.34;100.00;102567.69;10422661;28;20080;-93
2023/01/03 13:53:59;;;;;;;0.40;0.35;;;;;;;10.49;100.00;102547.06;10406891;28;20489;-92
2023/01/03 13:59:16;;;;;;;0.13;0.13;;;;;;;10.22;100.00;102551.59;10406772;28;20045;-92
2023/01/03 14:04:43;;;;;;;1.45;0.75;;;;;;;10.68;100.00;102556.66;10422426;28;20408;-93
2023/01/03 14:09:52;;;;;;;0.35;0.35;;;;;;;10.47;100.00;102553.81;10423105;28;20128;-92
2023/01/03 14:14:56;;;;;;;1.60;1.02;;;;;;;10.88;100.00;102541.31;10391061;28;20050;-93
2023/01/03 14:20:08;;;;;;;0.50;0.47;;;;;;;10.43;100.00;102550.19;10365878;28;20077;-93
2023/01/03 14:25:33;;;;;;;0.25;0.25;;;;;;;10.20;100.00;102553.19;10415774;28;20073;-93
2023/01/03 14:30:39;;;;;;;1.77;0.65;;;;;;;10.13;100.00;102549.38;10421329;28;20050;-93
2023/01/03 14:35:41;;;;;;;0.75;0.75;;;;;;;10.37;100.00;102556.69;10421694;28;20048;-95
2023/01/03 14:40:45;;;;;;;2.65;1.48;;;;;;;10.23;100.00;102563.66;10404358;28;20046;-92
2023/01/03 14:45:58;;;;;;;0.95;0.73;;;;;;;10.34;100.00;102549.66;10421319;28;20050;-93
2023/01/03 14:51:02;;;;;;;1.35;0.60;;;;;;;10.11;100.00;102553.59;10387309;28;20069;-91
2023/01/03 14:56:05;;;;;;;0.85;0.65;;;;;;;9.88;100.00;102550.63;10389706;28;20056;-93
2023/01/03 15:01:10;;;;;;;0.43;0.20;;;;;;;9.78;100.00;102549.25;10406581;28;20140;-92
2023/01/03 15:06:19;;;;;;;1.88;0.75;;;;;;;9.50;100.00;102550.25;10431513;28;20060;-94
2023/01/03 15:11:54;;;;;;;0.20;0.20;;;;;;;9.54;100.00;102561.59;10414222;28;20063;-93
2023/01/03 15:17:09;;;;;;;0.15;0.15;;;;;;;9.61;100.00;102566.28;10403754;28;20049;-93
2023/01/03 15:22:20;;;;;;;0.22;0.20;;;;;;;9.17;100.00;102557.81;10409019;28;20051;-92
2023/01/03 15:27:37;;;;;;;0.45;0.25;;;;;;;9.36;100.00;102562.34;10449935;28;20563;-92
2023/01/03 15:32:57;;;;;;;0.65;0.03;;;;;;;9.47;100.00;102567.19;10401671;28;20467;-92
2023/01/03 15:38:01;;;;;;;0.55;0.55;;;;;;;9.21;100.00;102559.75;10445023;28;20041;-93
2023/01/03 15:43:20;;;;;;;0.28;0.20;;;;;;;9.43;100.00;102566.13;10430403;28;20080;-92
2023/01/03 15:48:22;;;;;;;0.45;0.28;;;;;;;8.98;100.00;102555.84;10401898;28;20499;-93
2023/01/03 15:53:26;;;;;;;0.10;0.10;;;;;;;8.74;100.00;102539.88;10400691;28;20099;-93
2023/01/03 15:58:29;;;;;;;1.85;1.08;;;;;;;8.97;100.00;102545.50;10418295;28;20485;-92
2023/01/03 16:03:33;;;;;;;0.93;0.63;;;;;;;8.81;100.00;102524.00;10399894;28;20572;-92
2023/01/03 16:08:38;;;;;;;1.80;0.93;;;;;;;8.87;100.00;102532.09;10430989;28;20056;-92
2023/01/03 16:13:45;;;;;;;1.00;0.45;;;;;;;8.32;100.00;102528.72;10438266;28;20049;-92
2023/01/03 16:18:47;;;;;;;0.65;0.32;;;;;;;8.21;100.00;102528.06;10427410;28;20048;-91
2023/01/03 16:23:51;;;;;;;0.57;0.40;;;;;;;8.12;100.00;102530.09;10420538;28;20068;-93
2023/01/03 16:28:53;;;;;;;0.30;0.20;;;;;;;8.14;100.00;102531.94;10412350;28;20513;-93
2023/01/03 16:33:58;;;;;;;2.80;0.30;;;;;;;8.21;100.00;102536.66;10413707;28;20049;-93
2023/01/03 16:46:01;;;;;;;0.13;0.13;;;;;;;8.34;100.00;102529.72;10441275;28;20033;-92
2023/01/03 16:51:05;;;;;;;0.17;0.00;;;;;;;8.17;100.00;102521.84;10407516;28;20145;-92
2023/01/03 16:56:10;;;;;;;0.20;0.20;;;;;;;8.12;100.00;102525.81;10395179;28;20046;-93
2023/01/03 17:01:13;;;;;;;0.20;0.20;;;;;;;8.08;100.00;102521.28;10425651;28;20052;-92
2023/01/03 17:06:42;;;;;;;0.15;0.15;;;;;;;8.14;100.00;102506.28;10414485;28;20555;-92
2023/01/03 17:11:53;;;;;;;0.28;0.17;;;;;;;8.12;100.00;102510.41;10410552;28;20562;-94
2023/01/03 17:16:55;;;;;;;0.05;0.03;;;;;;;8.04;100.00;102507.34;10426623;28;20315;-92
2023/01/03 17:22:02;;;;;;;0.10;0.10;;;;;;;8.40;100.00;102501.81;10410873;28;20053;-93
2023/01/03 17:27:10;;;;;;;0.00;0.00;;;;;;;8.25;100.00;102497.53;10391068;28;20046;-91
2023/01/03 17:32:16;;;;;;;1.35;0.75;;;;;;;8.29;100.00;102493.47;10398284;28;20045;-92
2023/01/03 17:37:21;;;;;;;0.10;0.10;;;;;;;8.78;100.00;102495.56;10396135;28;20049;-93
2023/01/03 17:42:25;;;;;;;1.95;1.80;;;;;;;8.51;100.00;102485.44;10415513;28;20052;-92
2023/01/03 17:52:47;;;;;;;0.15;0.15;;;;;;;8.71;100.00;102478.88;10411056;28;20071;-95
2023/01/03 17:58:00;;;;;;;0.43;0.30;;;;;;;8.66;100.00;102464.88;10398943;28;20069;-94
2023/01/03 18:03:03;;;;;;;0.00;0.00;;;;;;;9.07;100.00;102468.06;10390854;28;20420;-91
2023/01/03 18:08:05;;;;;;;0.00;0.00;;;;;;;9.02;100.00;102461.81;10414457;28;20056;-93
2023/01/03 18:13:19;;;;;;;0.32;0.28;;;;;;;9.02;100.00;102459.22;10405081;28;20052;-92
2023/01/03 18:18:23;;;;;;;0.30;0.28;;;;;;;9.26;100.00;102454.59;10404366;28;20049;-93
2023/01/03 18:23:31;;;;;;;1.13;0.63;;;;;;;8.93;100.00;102446.75;10445402;28;20047;-94
2023/01/03 18:28:33;;;;;;;0.00;0.00;;;;;;;8.92;100.00;102441.50;10421386;28;20037;-93
2023/01/03 18:33:35;;;;;;;0.00;0.00;;;;;;;9.08;100.00;102427.84;10406858;28;20117;-91
2023/01/03 18:38:39;;;;;;;0.52;0.08;;;;;;;9.15;100.00;102420.56;10393546;28;20542;-94
2023/01/03 18:43:42;;;;;;;0.30;0.28;;;;;;;8.80;100.00;102405.69;10418185;28;20451;-94
2023/01/03 18:48:44;;;;;;;0.10;0.10;;;;;;;9.19;100.00;102412.22;10406616;28;20053;-93
2023/01/03 18:53:54;;;;;;;8.27;0.68;;;;;;;9.23;100.00;102391.81;10439691;28;20102;-93
2023/01/03 18:59:05;;;;;;;0.10;0.10;;;;;;;9.15;100.00;102394.84;10434239;28;20045;-92
2023/01/03 19:04:07;;;;;;;1.92;0.98;;;;;;;9.11;100.00;102382.63;10416744;28;20497;-93
2023/01/03 19:09:21;;;;;;;0.38;0.38;;;;;;;9.06;100.00;102373.75;10432641;28;20254;-91
2023/01/03 19:14:23;;;;;;;0.85;0.40;;;;;;;9.07;100.00;102374.66;10422528;28;20052;-91
2023/01/03 19:19:26;;;;;;;0.38;0.28;;;;;;;9.05;100.00;102362.59;10414006;28;20083;-92
2023/01/03 19:24:35;;;;;;;1.00;0.32;;;;;;;8.84;100.00;102359.69;10425046;28;20065;-91
2023/01/03 19:29:40;;;;;;;0.10;0.10;;;;;;;9.01;100.00;102362.34;10404252;28;20041;-94
2023/01/03 19:34:42;;;;;;;0.08;0.08;;;;;;;8.79;100.00;102358.56;10410753;28;20497;-92
2023/01/03 19:39:45;;;;;;;0.00;0.00;;;;;;;9.02;100.00;102366.69;10422105;28;20053;-92
2023/01/03 19:44:48;;;;;;;0.00;0.00;;;;;;;8.82;100.00;102358.75;10407102;28;20041;-93
2023/01/03 19:49:49;;;;;;;1.75;0.20;;;;;;;8.79;100.00;102348.28;10405032;28;20051;-93
2023/01/03 19:54:51;;;;;;;3.35;0.95;;;;;;;8.80;100.00;102344.91;10400127;28;20061;-91
2023/01/03 19:59:57;;;;;;;0.15;0.15;;;;;;;8.95;100.00;102338.84;10411753;28;20049;-92
2023/01/03 20:04:59;;;;;;;0.68;0.28;;;;;;;8.69;100.00;102336.59;10410933;28;20423;-91
2023/01/03 20:10:01;;;;;;;1.20;0.60;;;;;;;9.07;100.00;102325.81;10392362;28;20500;-91
2023/01/03 20:15:03;;;;;;;0.38;0.30;;;;;;;8.94;100.00;102298.53;10436468;28;20045;-91
2023/01/03 20:20:10;;;;;;;0.98;0.38;;;;;;;8.81;100.00;102285.00;10417974;28;20468;-92
2023/01/03 20:25:30;;;;;;;0.00;0.00;;;;;;;9.02;100.00;102281.84;10396683;28;20596;-91
2023/01/03 20:30:33;;;;;;;0.00;0.00;;;;;;;8.75;100.00;102279.50;10421252;28;20409;-93
2023/01/03 20:35:35;;;;;;;0.20;0.10;;;;;;;9.19;100.00;102273.38;10395513;28;20408;-92
2023/01/03 20:40:57;;;;;;;0.65;0.65;;;;;;;9.11;100.00;102269.50;10427309;28;20404;-91
2023/01/03 20:45:58;;;;;;;0.00;0.00;;;;;;;8.85;100.00;102271.50;10410869;28;20052;-92
2023/01/03 20:51:00;;;;;;;0.00;0.00;;;;;;;8.73;100.00;102276.00;10421680;28;20513;-91
2023/01/03 20:56:02;;;;;;;0.45;0.40;;;;;;;9.07;100.00;102261.53;10424967;28;20041;-93
2023/01/03 21:01:05;;;;;;;0.00;0.00;;;;;;;9.00;100.00;102250.03;10402164;28;20102;-91
2023/01/03 21:06:22;;;;;;;0.32;0.20;;;;;;;9.11;100.00;102246.34;10417367;28;20057;-93
2023/01/03 21:11:30;;;;;;;0.00;0.00;;;;;;;8.89;100.00;102236.59;10413039;28;20556;-92
2023/01/03 21:16:41;;;;;;;0.38;0.25;;;;;;;8.79;100.00;102222.38;10425435;28;20045;-92
2023/01/03 21:21:47;;;;;;;0.90;0.38;;;;;;;8.87;100.00;102218.53;10395269;28;20042;-93
2023/01/03 21:26:48;;;;;;;0.00;0.00;;;;;;;8.77;100.00;102211.09;10417273;28;20409;-91
2023/01/03 21:31:50;;;;;;;0.00;0.00;;;;;;;8.82;100.00;102206.22;10411330;28;20071;-93
2023/01/03 21:36:52;;;;;;;0.00;0.00;;;;;;;8.81;100.00;102199.31;10406686;28;20042;-92
2023/01/03 21:47:14;;;;;;;0.00;0.00;;;;;;;8.46;100.00;102183.69;10413304;28;20049;-91
2023/01/03 21:52:16;;;;;;;0.80;0.43;;;;;;;8.55;100.00;102183.38;10388798;28;20492;-92
2023/01/03 21:57:17;;;;;;;0.00;0.00;;;;;;;8.65;100.00;102174.47;10383394;28;20037;-92
2023/01/03 22:07:45;;;;;;;0.00;0.00;;;;;;;8.92;100.00;102166.47;10427741;28;20077;-92
2023/01/03 22:12:52;;;;;;;3.20;0.68;;;;;;;8.70;100.00;102153.38;10403624;28;20052;-93
2023/01/03 22:17:57;;;;;;;0.00;0.00;;;;;;;8.61;100.00;102151.97;10436880;28;20050;-91
2023/01/03 22:22:58;;;;;;;0.00;0.00;;;;;;;8.52;100.00;102140.44;10420864;28;20049;-91
2023/01/03 22:28:00;;;;;;;0.10;0.10;;;;;;;8.83;100.00;102134.34;10414211;28;20408;-92
2023/01/03 22:33:02;;;;;;;0.10;0.10;;;;;;;8.87;100.00;102120.88;10416790;28;20081;-94
2023/01/03 22:38:04;;;;;;;0.00;0.00;;;;;;;8.66;100.00;102122.31;10418545;28;20041;-91
2023/01/03 22:43:05;;;;;;;0.25;0.25;;;;;;;8.60;100.00;102106.56;10407587;28;20144;-91
2023/01/03 22:48:07;;;;;;;1.50;0.50;;;;;;;9.03;100.00;102106.25;10403250;28;20045;-92
2023/01/03 22:53:10;;;;;;;0.00;0.00;;;;;;;8.80;100.00;102093.06;10402508;28;20463;-93
2023/01/03 22:58:15;;;;;;;0.08;0.08;;;;;;;9.01;100.00;102087.28;10410118;28;20050;-92
2023/01/03 23:03:16;;;;;;;0.00;0.00;;;;;;;8.81;100.00;102069.16;10435910;28;20049;-93
2023/01/03 23:08:18;;;;;;;0.20;0.20;;;;;;;9.09;100.00;102069.66;10434524;28;20048;-93
2023/01/03 23:13:21;;;;;;;0.00;0.00;;;;;;;9.18;100.00;102065.88;10412001;28;20534;-93
2023/01/03 23:18:22;;;;;;;0.13;0.10;;;;;;;9.18;100.00;102055.59;10390616;28;20038;-91
2023/01/03 23:23:25;;;;;;;0.08;0.05;;;;;;;9.29;100.00;102042.38;10403305;28;20103;-93
2023/01/03 23:28:27;;;;;;;0.10;0.10;;;;;;;9.41;100.00;102036.97;10377867;28;20417;-91
2023/01/03 23:33:29;;;;;;;0.38;0.38;;;;;;;9.55;100.00;102019.63;10387610;28;20053;-92
2023/01/03 23:38:30;;;;;;;0.40;0.40;;;;;;;9.49;100.00;102015.06;10414545;28;20049;-94
2023/01/03 23:43:32;;;;;;;0.10;0.00;;;;;;;9.87;100.00;101995.41;10382131;28;20052;-92
2023/01/03 23:48:34;;;;;;;0.13;0.13;;;;;;;9.62;100.00;101986.53;10405765;28;20481;-92
2023/01/03 23:53:38;;;;;;;0.00;0.00;;;;;;;9.62;100.00;101978.81;10400974;28;20121;-91
2023/01/03 23:58:40;;;;;;;0.20;0.20;;;;;;;9.73;100.00;101963.88;10425982;28;20049;-93
